sensor_id;sensor_type;location;lat;lon;timestamp;pressure;altitude;pressure_sealevel;temperature;humidity
4012;BME280;2020;48.682;9.024;2024-02-15T00:00:35;96925.97;;;9.13;100.00
4012;BME280;2020;48.682;9.024;2024-02-15T00:03:00;96919.16;;;9.12;99.36
4012;BME280;2020;48.682;9.024;2024-02-15T00:05:26;96924.63;;;9.09;100.00
4012;BME280;2020;48.682;9.024;2024-02-15T00:07:51;96917.78;;;9.07;99.97
4012;BME280;2020;48.682;9.024;2024-02-15T00:10:16;96921.03;;;9.00;100.00
4012;BME280;2020;48.682;9.024;2024-02-15T00:12:42;96918.84;;;8.95;100.00
4012;BME280;2020;48.682;9.024;2024-02-15T00:15:07;96918.84;;;8.95;100.00
4012;BME280;2020;48.682;9.024;2024-02-15T00:17:33;96921.31;;;8.97;100.00
4012;BME280;2020;48.682;9.024;2024-02-15T00:20:00;96916.94;;;8.97;100.00
4012;BME280;2020;48.682;9.024;2024-02-15T00:22:26;96920.22;;;8.99;100.00
4012;BME280;2020;48.682;9.024;2024-02-15T00:24:51;96910.66;;;8.90;100.00
4012;BME280;2020;48.682;9.024;2024-02-15T00:27:16;96909.53;;;8.83;100.00
4012;BME280;2020;48.682;9.024;2024-02-15T00:29:42;96908.16;;;8.78;100.00
4012;BME280;2020;48.682;9.024;2024-02-15T00:32:08;96909.28;;;8.86;100.00
4012;BME280;2020;48.682;9.024;2024-02-15T00:34:33;96909.53;;;8.83;100.00
4012;BME280;2020;48.682;9.024;2024-02-15T00:36:59;96913.25;;;8.90;100.00
4012;BME280;2020;48.682;9.024;2024-02-15T00:39:24;96911.44;;;8.90;100.00
4012;BME280;2020;48.682;9.024;2024-02-15T00:41:50;96908.06;;;8.90;100.00
4012;BME280;2020;48.682;9.024;2024-02-15T00:44:15;96909.00;;;8.89;99.49
4012;BME280;2020;48.682;9.024;2024-02-15T00:46:40;96908.31;;;8.87;99.63
4012;BME280;2020;48.682;9.024;2024-02-15T00:49:06;96912.56;;;8.88;98.98
4012;BME280;2020;48.682;9.024;2024-02-15T00:51:35;96904.63;;;8.80;99.32
4012;BME280;2020;48.682;9.024;2024-02-15T00:54:02;96903.41;;;8.84;99.24
4012;BME280;2020;48.682;9.024;2024-02-15T00:56:27;96903.66;;;8.81;99.35
4012;BME280;2020;48.682;9.024;2024-02-15T00:58:54;96899.00;;;8.74;99.94
4012;BME280;2020;48.682;9.024;2024-02-15T01:01:20;96901.34;;;8.77;99.66
4012;BME280;2020;48.682;9.024;2024-02-15T01:03:46;96905.56;;;8.78;99.26
4012;BME280;2020;48.682;9.024;2024-02-15T01:06:11;96896.69;;;8.71;99.96
4012;BME280;2020;48.682;9.024;2024-02-15T01:08:36;96896.94;;;8.68;100.00
4012;BME280;2020;48.682;9.024;2024-02-15T01:11:02;96895.56;;;8.64;100.00
4012;BME280;2020;48.682;9.024;2024-02-15T01:13:27;96893.94;;;8.63;100.00
4012;BME280;2020;48.682;9.024;2024-02-15T01:15:52;96901.00;;;8.61;99.66
4012;BME280;2020;48.682;9.024;2024-02-15T01:18:17;96902.22;;;8.57;100.00
4012;BME280;2020;48.682;9.024;2024-02-15T01:20:43;96897.84;;;8.57;100.00
4012;BME280;2020;48.682;9.024;2024-02-15T01:23:10;96891.97;;;8.55;100.00
4012;BME280;2020;48.682;9.024;2024-02-15T01:25:35;96888.16;;;8.59;100.00
4012;BME280;2020;48.682;9.024;2024-02-15T01:28:00;96897.72;;;8.59;100.00
4012;BME280;2020;48.682;9.024;2024-02-15T01:30:27;96888.97;;;8.60;99.97
4012;BME280;2020;48.682;9.024;2024-02-15T01:32:54;96891.97;;;8.55;99.95
4012;BME280;2020;48.682;9.024;2024-02-15T01:35:19;96902.91;;;8.59;99.64
4012;BME280;2020;48.682;9.024;2024-02-15T01:37:44;96894.97;;;8.51;99.77
4012;BME280;2020;48.682;9.024;2024-02-15T01:40:09;96889.50;;;8.54;99.89
4012;BME280;2020;48.682;9.024;2024-02-15T01:42:37;96890.25;;;8.44;100.00
4012;BME280;2020;48.682;9.024;2024-02-15T01:45:03;96896.53;;;8.42;100.00
4012;BME280;2020;48.682;9.024;2024-02-15T01:47:29;96886.97;;;8.42;99.67
4012;BME280;2020;48.682;9.024;2024-02-15T01:49:55;96881.09;;;8.40;100.00
4012;BME280;2020;48.682;9.024;2024-02-15T01:52:22;96880.28;;;8.40;99.98
4012;BME280;2020;48.682;9.024;2024-02-15T01:54:48;96879.03;;;8.34;99.74
4012;BME280;2020;48.682;9.024;2024-02-15T01:57:13;96876.00;;;8.29;100.00
4012;BME280;2020;48.682;9.024;2024-02-15T01:59:39;96874.09;;;8.31;99.62
4012;BME280;2020;48.682;9.024;2024-02-15T02:02:08;96877.91;;;8.27;100.00
4012;BME280;2020;48.682;9.024;2024-02-15T02:04:37;96869.72;;;8.22;99.68
4012;BME280;2020;48.682;9.024;2024-02-15T02:07:03;96879.22;;;8.11;100.00
4012;BME280;2020;48.682;9.024;2024-02-15T02:09:28;96875.69;;;8.12;100.00
4012;BME280;2020;48.682;9.024;2024-02-15T02:11:54;96880.69;;;8.04;100.00
4012;BME280;2020;48.682;9.024;2024-02-15T02:14:19;96876.44;;;8.03;100.00
4012;BME280;2020;48.682;9.024;2024-02-15T02:16:45;96878.34;;;8.01;100.00
4012;BME280;2020;48.682;9.024;2024-02-15T02:19:11;96881.09;;;7.99;100.00
4012;BME280;2020;48.682;9.024;2024-02-15T02:21:38;96877.81;;;7.97;100.00
4012;BME280;2020;48.682;9.024;2024-02-15T02:24:28;96887.84;;;7.90;100.00
4012;BME280;2020;48.682;9.024;2024-02-15T02:26:53;96875.53;;;7.83;100.00
4012;BME280;2020;48.682;9.024;2024-02-15T02:29:19;96874.97;;;7.79;100.00
4012;BME280;2020;48.682;9.024;2024-02-15T02:31:45;96875.41;;;7.63;100.00
4012;BME280;2020;48.682;9.024;2024-02-15T02:34:11;96874.34;;;7.66;100.00
4012;BME280;2020;48.682;9.024;2024-02-15T02:36:38;96872.72;;;7.65;100.00
4012;BME280;2020;48.682;9.024;2024-02-15T02:39:05;96871.06;;;7.64;100.00
4012;BME280;2020;48.682;9.024;2024-02-15T02:41:32;96874.59;;;7.63;100.00
4012;BME280;2020;48.682;9.024;2024-02-15T02:43:57;96883.25;;;7.52;100.00
4012;BME280;2020;48.682;9.024;2024-02-15T02:46:23;96875.88;;;7.47;100.00
4012;BME280;2020;48.682;9.024;2024-02-15T02:48:48;96869.13;;;7.23;100.00
4012;BME280;2020;48.682;9.024;2024-02-15T02:51:15;96864.94;;;7.11;100.00
4012;BME280;2020;48.682;9.024;2024-02-15T02:53:40;96866.59;;;7.12;100.00
4012;BME280;2020;48.682;9.024;2024-02-15T02:56:05;96871.75;;;7.12;100.00
4012;BME280;2020;48.682;9.024;2024-02-15T02:58:33;96872.75;;;6.99;100.00
4012;BME280;2020;48.682;9.024;2024-02-15T03:00:58;96868.97;;;7.03;100.00
4012;BME280;2020;48.682;9.024;2024-02-15T03:03:25;96866.41;;;6.92;100.00
4012;BME280;2020;48.682;9.024;2024-02-15T03:05:51;96866.63;;;7.00;100.00
4012;BME280;2020;48.682;9.024;2024-02-15T03:08:16;96876.13;;;7.11;100.00
4012;BME280;2020;48.682;9.024;2024-02-15T03:10:42;96874.09;;;7.15;100.00
4012;BME280;2020;48.682;9.024;2024-02-15T03:13:08;96878.13;;;7.08;100.00
4012;BME280;2020;48.682;9.024;2024-02-15T03:15:34;96872.94;;;7.08;100.00
4012;BME280;2020;48.682;9.024;2024-02-15T03:17:59;96864.94;;;7.11;100.00
4012;BME280;2020;48.682;9.024;2024-02-15T03:20:24;96865.81;;;7.00;100.00
4012;BME280;2020;48.682;9.024;2024-02-15T03:22:57;96873.66;;;7.10;100.00
4012;BME280;2020;48.682;9.024;2024-02-15T03:25:23;96865.09;;;7.09;100.00
4012;BME280;2020;48.682;9.024;2024-02-15T03:27:50;96877.28;;;7.19;100.00
4012;BME280;2020;48.682;9.024;2024-02-15T03:30:17;96874.31;;;7.23;100.00
4012;BME280;2020;48.682;9.024;2024-02-15T03:32:44;96879.97;;;7.17;100.00
4012;BME280;2020;48.682;9.024;2024-02-15T03:35:09;96873.16;;;7.16;100.00
4012;BME280;2020;48.682;9.024;2024-02-15T03:37:35;96870.50;;;7.06;100.00
4012;BME280;2020;48.682;9.024;2024-02-15T03:40:03;96867.97;;;7.16;100.00
4012;BME280;2020;48.682;9.024;2024-02-15T03:42:30;96866.34;;;7.15;100.00
4012;BME280;2020;48.682;9.024;2024-02-15T03:44:55;96870.38;;;7.08;100.00
4012;BME280;2020;48.682;9.024;2024-02-15T03:47:20;96870.28;;;6.98;100.00
4012;BME280;2020;48.682;9.024;2024-02-15T03:49:46;96871.34;;;6.95;100.00
4012;BME280;2020;48.682;9.024;2024-02-15T03:52:11;96869.34;;;6.99;100.00
4012;BME280;2020;48.682;9.024;2024-02-15T03:54:37;96875.63;;;6.85;100.00
4012;BME280;2020;48.682;9.024;2024-02-15T03:57:02;96883.16;;;6.77;100.00
4012;BME280;2020;48.682;9.024;2024-02-15T03:59:27;96878.00;;;6.77;100.00
4012;BME280;2020;48.682;9.024;2024-02-15T04:01:53;96879.41;;;6.69;100.00
4012;BME280;2020;48.682;9.024;2024-02-15T04:04:19;96880.59;;;6.65;100.00
4012;BME280;2020;48.682;9.024;2024-02-15T04:06:48;96880.25;;;6.58;100.00
4012;BME280;2020;48.682;9.024;2024-02-15T04:09:14;96884.25;;;6.51;100.00
4012;BME280;2020;48.682;9.024;2024-02-15T04:11:39;96892.59;;;6.66;100.00
4012;BME280;2020;48.682;9.024;2024-02-15T04:14:05;96888.59;;;6.73;100.00
4012;BME280;2020;48.682;9.024;2024-02-15T04:16:30;96884.13;;;6.64;100.00
4012;BME280;2020;48.682;9.024;2024-02-15T04:18:57;96885.06;;;6.75;100.00
4012;BME280;2020;48.682;9.024;2024-02-15T04:21:23;96886.47;;;6.67;100.00
4012;BME280;2020;48.682;9.024;2024-02-15T04:23:48;96884.13;;;6.64;100.00
4012;BME280;2020;48.682;9.024;2024-02-15T04:26:13;96882.59;;;6.62;100.00
4012;BME280;2020;48.682;9.024;2024-02-15T04:28:39;96884.84;;;6.55;100.00
4012;BME280;2020;48.682;9.024;2024-02-15T04:31:06;96878.97;;;6.64;100.00
4012;BME280;2020;48.682;9.024;2024-02-15T04:33:34;96880.38;;;6.68;100.00
4012;BME280;2020;48.682;9.024;2024-02-15T04:35:59;96887.19;;;6.69;100.00
4012;BME280;2020;48.682;9.024;2024-02-15T04:38:27;96886.44;;;6.79;100.00
4012;BME280;2020;48.682;9.024;2024-02-15T04:40:52;96887.78;;;6.73;100.00
4012;BME280;2020;48.682;9.024;2024-02-15T04:43:19;96883.16;;;6.77;100.00
4012;BME280;2020;48.682;9.024;2024-02-15T04:45:44;96874.69;;;6.75;100.00
4012;BME280;2020;48.682;9.024;2024-02-15T04:48:11;96872.81;;;6.77;100.00
4012;BME280;2020;48.682;9.024;2024-02-15T04:50:38;96872.56;;;6.80;100.00
4012;BME280;2020;48.682;9.024;2024-02-15T04:53:08;96866.94;;;6.75;100.00
4012;BME280;2020;48.682;9.024;2024-02-15T04:55:33;96864.94;;;6.78;100.00
4012;BME280;2020;48.682;9.024;2024-02-15T04:58:00;96869.53;;;6.75;100.00
4012;BME280;2020;48.682;9.024;2024-02-15T05:00:26;96854.94;;;6.73;100.00
4012;BME280;2020;48.682;9.024;2024-02-15T05:02:51;96859.44;;;6.71;100.00
4012;BME280;2020;48.682;9.024;2024-02-15T05:05:16;96859.22;;;6.52;100.00
4012;BME280;2020;48.682;9.024;2024-02-15T05:07:42;96865.56;;;6.59;100.00
4012;BME280;2020;48.682;9.024;2024-02-15T05:10:08;96862.63;;;6.64;100.00
4012;BME280;2020;48.682;9.024;2024-02-15T05:12:34;96862.63;;;6.64;100.00
4012;BME280;2020;48.682;9.024;2024-02-15T05:15:00;96861.56;;;6.66;100.00
4012;BME280;2020;48.682;9.024;2024-02-15T05:17:26;96860.41;;;6.59;100.00
4012;BME280;2020;48.682;9.024;2024-02-15T05:19:53;96851.34;;;6.53;100.00
4012;BME280;2020;48.682;9.024;2024-02-15T05:22:19;96854.06;;;6.52;100.00
4012;BME280;2020;48.682;9.024;2024-02-15T05:24:44;96854.38;;;6.58;100.00
4012;BME280;2020;48.682;9.024;2024-02-15T05:27:10;96858.75;;;6.58;100.00
4012;BME280;2020;48.682;9.024;2024-02-15T05:29:35;96855.22;;;6.59;100.00
4012;BME280;2020;48.682;9.024;2024-02-15T05:32:01;96843.72;;;6.52;100.00
4012;BME280;2020;48.682;9.024;2024-02-15T05:34:27;96847.25;;;6.51;100.00
4012;BME280;2020;48.682;9.024;2024-02-15T05:36:54;96849.59;;;6.42;100.00
4012;BME280;2020;48.682;9.024;2024-02-15T05:39:20;96854.78;;;6.42;100.00
4012;BME280;2020;48.682;9.024;2024-02-15T05:41:47;96853.47;;;6.48;100.00
4012;BME280;2020;48.682;9.024;2024-02-15T05:44:12;96864.41;;;6.52;100.00
4012;BME280;2020;48.682;9.024;2024-02-15T05:46:39;96856.19;;;6.47;100.00
4012;BME280;2020;48.682;9.024;2024-02-15T05:49:05;96860.19;;;6.39;100.00
4012;BME280;2020;48.682;9.024;2024-02-15T05:51:31;96859.72;;;6.46;100.00
4012;BME280;2020;48.682;9.024;2024-02-15T05:53:57;96863.00;;;6.48;100.00
4012;BME280;2020;48.682;9.024;2024-02-15T05:56:26;96869.56;;;6.52;100.00
4012;BME280;2020;48.682;9.024;2024-02-15T05:58:52;96874.84;;;6.50;100.00
4012;BME280;2020;48.682;9.024;2024-02-15T06:01:17;96869.44;;;6.53;100.00
4012;BME280;2020;48.682;9.024;2024-02-15T06:03:42;96862.75;;;6.51;100.00
4012;BME280;2020;48.682;9.024;2024-02-15T06:06:09;96857.34;;;6.54;100.00
4012;BME280;2020;48.682;9.024;2024-02-15T06:08:37;96862.53;;;6.54;100.00
4012;BME280;2020;48.682;9.024;2024-02-15T06:11:03;96860.63;;;6.56;100.00
4012;BME280;2020;48.682;9.024;2024-02-15T06:13:29;96860.41;;;6.59;100.00
4012;BME280;2020;48.682;9.024;2024-02-15T06:15:55;96859.78;;;6.55;100.00
4012;BME280;2020;48.682;9.024;2024-02-15T06:18:21;96859.00;;;6.55;100.00
4012;BME280;2020;48.682;9.024;2024-02-15T06:20:49;96860.41;;;6.48;100.00
4012;BME280;2020;48.682;9.024;2024-02-15T06:23:18;96862.63;;;6.41;100.00
4012;BME280;2020;48.682;9.024;2024-02-15T06:25:44;96861.59;;;6.43;100.00
4012;BME280;2020;48.682;9.024;2024-02-15T06:28:10;96859.94;;;6.42;100.00
4012;BME280;2020;48.682;9.024;2024-02-15T06:30:47;96863.47;;;6.41;100.00
4012;BME280;2020;48.682;9.024;2024-02-15T06:33:31;96851.72;;;6.37;100.00
4012;BME280;2020;48.682;9.024;2024-02-15T06:36:15;96848.44;;;6.35;100.00
4012;BME280;2020;48.682;9.024;2024-02-15T06:38:59;96843.97;;;6.37;100.00
4012;BME280;2020;48.682;9.024;2024-02-15T06:41:43;96839.06;;;6.23;100.00
4012;BME280;2020;48.682;9.024;2024-02-15T06:44:08;96846.81;;;6.23;100.00
4012;BME280;2020;48.682;9.024;2024-02-15T06:46:34;96848.00;;;6.19;100.00
4012;BME280;2020;48.682;9.024;2024-02-15T06:49:00;96845.16;;;6.22;100.00
4012;BME280;2020;48.682;9.024;2024-02-15T06:51:25;96845.88;;;6.24;100.00
4012;BME280;2020;48.682;9.024;2024-02-15T06:53:50;96852.78;;;6.35;100.00
4012;BME280;2020;48.682;9.024;2024-02-15T06:56:16;96851.50;;;6.40;100.00
4012;BME280;2020;48.682;9.024;2024-02-15T06:58:44;96854.66;;;6.44;100.00
4012;BME280;2020;48.682;9.024;2024-02-15T07:01:09;96849.47;;;6.44;100.00
4012;BME280;2020;48.682;9.024;2024-02-15T07:03:35;96850.88;;;6.48;100.00
4012;BME280;2020;48.682;9.024;2024-02-15T07:06:01;96851.25;;;6.43;100.00
4012;BME280;2020;48.682;9.024;2024-02-15T07:08:28;96850.53;;;6.53;100.00
4012;BME280;2020;48.682;9.024;2024-02-15T07:10:54;96856.13;;;6.69;100.00
4012;BME280;2020;48.682;9.024;2024-02-15T07:13:20;96855.09;;;7.05;100.00
4012;BME280;2020;48.682;9.024;2024-02-15T07:15:45;96856.16;;;7.35;100.00
4012;BME280;2020;48.682;9.024;2024-02-15T07:18:12;96849.81;;;7.70;98.51
4012;BME280;2020;48.682;9.024;2024-02-15T07:20:37;96849.31;;;7.76;96.18
4012;BME280;2020;48.682;9.024;2024-02-15T07:23:02;96851.47;;;8.02;94.82
4012;BME280;2020;48.682;9.024;2024-02-15T07:25:28;96847.06;;;8.24;95.10
4012;BME280;2020;48.682;9.024;2024-02-15T07:27:54;96848.75;;;8.44;94.48
4012;BME280;2020;48.682;9.024;2024-02-15T07:30:19;96851.00;;;8.59;92.64
4012;BME280;2020;48.682;9.024;2024-02-15T07:32:44;96844.94;;;8.48;90.99
4012;BME280;2020;48.682;9.024;2024-02-15T07:35:09;96837.41;;;8.76;91.09
4012;BME280;2020;48.682;9.024;2024-02-15T07:37:35;96827.03;;;8.96;90.25
4012;BME280;2020;48.682;9.024;2024-02-15T07:40:01;96818.00;;;9.00;89.23
4012;BME280;2020;48.682;9.024;2024-02-15T07:42:29;96813.47;;;9.12;88.61
4012;BME280;2020;48.682;9.024;2024-02-15T07:44:54;96811.44;;;9.16;88.54
4012;BME280;2020;48.682;9.024;2024-02-15T07:47:19;96809.66;;;9.26;87.14
4012;BME280;2020;48.682;9.024;2024-02-15T07:49:49;96802.16;;;9.23;86.40
4012;BME280;2020;48.682;9.024;2024-02-15T07:52:14;96802.94;;;9.33;87.21
4012;BME280;2020;48.682;9.024;2024-02-15T07:54:39;96802.66;;;9.36;88.03
4012;BME280;2020;48.682;9.024;2024-02-15T07:57:05;96795.84;;;9.35;88.17
4012;BME280;2020;48.682;9.024;2024-02-15T07:59:30;96795.16;;;9.33;87.88
4012;BME280;2020;48.682;9.024;2024-02-15T08:01:55;96796.41;;;9.29;87.66
4012;BME280;2020;48.682;9.024;2024-02-15T08:04:21;96786.84;;;9.20;88.28
4012;BME280;2020;48.682;9.024;2024-02-15T08:06:46;96789.88;;;9.05;87.52
4012;BME280;2020;48.682;9.024;2024-02-15T08:09:15;96787.13;;;9.17;88.44
4012;BME280;2020;48.682;9.024;2024-02-15T08:11:43;96791.88;;;9.21;88.51
4012;BME280;2020;48.682;9.024;2024-02-15T08:14:09;96795.28;;;9.42;88.76
4012;BME280;2020;48.682;9.024;2024-02-15T08:16:36;96788.00;;;9.55;87.61
4012;BME280;2020;48.682;9.024;2024-02-15T08:19:02;96780.03;;;9.66;89.58
4012;BME280;2020;48.682;9.024;2024-02-15T08:21:31;96777.16;;;9.70;88.19
4012;BME280;2020;48.682;9.024;2024-02-15T08:24:02;96773.00;;;9.77;87.46
4012;BME280;2020;48.682;9.024;2024-02-15T08:26:38;96773.06;;;9.67;86.04
4012;BME280;2020;48.682;9.024;2024-02-15T08:29:04;96764.09;;;9.51;87.83
4012;BME280;2020;48.682;9.024;2024-02-15T08:31:29;96770.69;;;9.36;86.53
4012;BME280;2020;48.682;9.024;2024-02-15T08:34:04;96772.47;;;9.35;88.12
4012;BME280;2020;48.682;9.024;2024-02-15T08:36:31;96772.06;;;9.30;87.35
4012;BME280;2020;48.682;9.024;2024-02-15T08:38:56;96758.94;;;9.32;86.72
4012;BME280;2020;48.682;9.024;2024-02-15T08:41:21;96750.47;;;9.30;86.74
4012;BME280;2020;48.682;9.024;2024-02-15T08:43:51;96749.53;;;9.21;87.54
4012;BME280;2020;48.682;9.024;2024-02-15T08:46:17;96750.19;;;9.33;88.16
4012;BME280;2020;48.682;9.024;2024-02-15T08:48:42;96752.91;;;9.31;87.37
4012;BME280;2020;48.682;9.024;2024-02-15T08:51:08;96758.66;;;9.25;86.94
4012;BME280;2020;48.682;9.024;2024-02-15T08:53:34;96748.78;;;9.39;90.77
4012;BME280;2020;48.682;9.024;2024-02-15T08:56:03;96756.75;;;9.37;86.60
4012;BME280;2020;48.682;9.024;2024-02-15T08:58:28;96748.78;;;9.48;87.49
4012;BME280;2020;48.682;9.024;2024-02-15T09:00:55;96748.50;;;9.51;88.19
4012;BME280;2020;48.682;9.024;2024-02-15T09:03:20;96749.69;;;9.57;87.33
4012;BME280;2020;48.682;9.024;2024-02-15T09:05:45;96741.31;;;9.73;85.88
4012;BME280;2020;48.682;9.024;2024-02-15T09:08:11;96742.31;;;9.90;85.67
4012;BME280;2020;48.682;9.024;2024-02-15T09:10:36;96734.56;;;10.08;85.28
4012;BME280;2020;48.682;9.024;2024-02-15T09:13:04;96734.31;;;10.30;87.57
4012;BME280;2020;48.682;9.024;2024-02-15T09:15:31;96734.56;;;10.55;82.71
4012;BME280;2020;48.682;9.024;2024-02-15T09:17:56;96733.38;;;10.67;82.44
4012;BME280;2020;48.682;9.024;2024-02-15T09:20:23;96728.41;;;10.74;82.44
4012;BME280;2020;48.682;9.024;2024-02-15T09:22:52;96722.19;;;10.93;80.93
4012;BME280;2020;48.682;9.024;2024-02-15T09:25:20;96731.00;;;11.18;81.05
4012;BME280;2020;48.682;9.024;2024-02-15T09:27:48;96724.50;;;11.40;81.36
4012;BME280;2020;48.682;9.024;2024-02-15T09:30:14;96726.75;;;11.35;77.58
4012;BME280;2020;48.682;9.024;2024-02-15T09:32:40;96718.75;;;11.63;81.78
4012;BME280;2020;48.682;9.024;2024-02-15T09:35:07;96719.84;;;11.61;78.70
4012;BME280;2020;48.682;9.024;2024-02-15T09:37:36;96717.97;;;11.79;78.14
4012;BME280;2020;48.682;9.024;2024-02-15T09:40:10;96714.22;;;11.74;76.87
4012;BME280;2020;48.682;9.024;2024-02-15T09:42:37;96715.25;;;11.89;77.58
4012;BME280;2020;48.682;9.024;2024-02-15T09:45:05;96712.72;;;12.06;74.50
4012;BME280;2020;48.682;9.024;2024-02-15T09:47:37;96711.78;;;12.15;74.30
4012;BME280;2020;48.682;9.024;2024-02-15T09:50:06;96713.78;;;12.46;75.94
4012;BME280;2020;48.682;9.024;2024-02-15T09:52:32;96709.56;;;12.53;74.73
4012;BME280;2020;48.682;9.024;2024-02-15T09:55:02;96711.56;;;12.68;74.60
4012;BME280;2020;48.682;9.024;2024-02-15T09:57:29;96701.09;;;12.84;72.07
4012;BME280;2020;48.682;9.024;2024-02-15T09:59:54;96710.56;;;12.94;70.60
4012;BME280;2020;48.682;9.024;2024-02-15T10:02:20;96701.09;;;12.84;70.25
4012;BME280;2020;48.682;9.024;2024-02-15T10:04:46;96695.88;;;13.01;68.40
4012;BME280;2020;48.682;9.024;2024-02-15T10:07:13;96699.13;;;13.03;69.04
4012;BME280;2020;48.682;9.024;2024-02-15T10:09:38;96695.88;;;13.01;68.14
4012;BME280;2020;48.682;9.024;2024-02-15T10:12:07;96688.47;;;13.13;69.02
4012;BME280;2020;48.682;9.024;2024-02-15T10:14:34;96687.81;;;13.27;68.08
4012;BME280;2020;48.682;9.024;2024-02-15T10:17:06;96680.41;;;13.56;68.60
4012;BME280;2020;48.682;9.024;2024-02-15T10:22:08;96690.16;;;13.70;65.54
4012;BME280;2020;48.682;9.024;2024-02-15T10:24:34;96692.66;;;13.64;66.01
4012;BME280;2020;48.682;9.024;2024-02-15T10:27:01;96677.66;;;13.89;67.87
4012;BME280;2020;48.682;9.024;2024-02-15T10:29:32;96681.53;;;14.01;67.08
4012;BME280;2020;48.682;9.024;2024-02-15T10:32:00;96672.47;;;14.12;68.94
4012;BME280;2020;48.682;9.024;2024-02-15T10:34:27;96676.34;;;13.85;65.09
4012;BME280;2020;48.682;9.024;2024-02-15T10:36:53;96671.00;;;13.78;64.48
4012;BME280;2020;48.682;9.024;2024-02-15T10:39:21;96671.75;;;13.95;66.55
4012;BME280;2020;48.682;9.024;2024-02-15T10:41:52;96663.06;;;14.26;67.71
4012;BME280;2020;48.682;9.024;2024-02-15T10:44:22;96669.22;;;14.33;64.81
4012;BME280;2020;48.682;9.024;2024-02-15T10:46:52;96664.22;;;14.47;63.80
4012;BME280;2020;48.682;9.024;2024-02-15T10:49:22;96666.56;;;14.65;62.11
4012;BME280;2020;48.682;9.024;2024-02-15T10:51:52;96660.28;;;14.51;64.39
4012;BME280;2020;48.682;9.024;2024-02-15T10:54:35;96667.00;;;14.69;67.01
4012;BME280;2020;48.682;9.024;2024-02-15T10:57:06;96661.91;;;14.75;63.21
4012;BME280;2020;48.682;9.024;2024-02-15T10:59:34;96665.97;;;14.78;60.67
4012;BME280;2020;48.682;9.024;2024-02-15T11:02:18;96652.38;;;14.98;64.79
4012;BME280;2020;48.682;9.024;2024-02-15T11:04:52;96652.72;;;14.95;61.42
4012;BME280;2020;48.682;9.024;2024-02-15T11:07:25;96648.41;;;15.02;59.64
4012;BME280;2020;48.682;9.024;2024-02-15T11:09:53;96645.53;;;15.27;61.91
4012;BME280;2020;48.682;9.024;2024-02-15T11:12:18;96639.22;;;15.36;62.19
4012;BME280;2020;48.682;9.024;2024-02-15T11:14:45;96632.31;;;15.20;58.08
4012;BME280;2020;48.682;9.024;2024-02-15T11:17:10;96630.31;;;14.92;58.71
4012;BME280;2020;48.682;9.024;2024-02-15T11:22:11;96624.09;;;15.08;58.13
4012;BME280;2020;48.682;9.024;2024-02-15T11:24:37;96620.19;;;14.89;57.78
4012;BME280;2020;48.682;9.024;2024-02-15T11:27:10;96614.69;;;14.99;60.58
4012;BME280;2020;48.682;9.024;2024-02-15T11:29:54;96616.41;;;15.21;58.93
4012;BME280;2020;48.682;9.024;2024-02-15T11:32:40;96608.91;;;15.18;58.84
4012;BME280;2020;48.682;9.024;2024-02-15T11:35:10;96614.09;;;15.27;58.45
4012;BME280;2020;48.682;9.024;2024-02-15T11:40:15;96608.38;;;15.08;59.88
4012;BME280;2020;48.682;9.024;2024-02-15T11:42:42;96607.44;;;15.01;57.03
4012;BME280;2020;48.682;9.024;2024-02-15T11:45:08;96601.03;;;14.88;57.55
4012;BME280;2020;48.682;9.024;2024-02-15T11:47:37;96602.41;;;15.14;55.76
4012;BME280;2020;48.682;9.024;2024-02-15T11:50:05;96600.41;;;14.86;55.08
4012;BME280;2020;48.682;9.024;2024-02-15T11:52:30;96598.09;;;14.68;55.76
4012;BME280;2020;48.682;9.024;2024-02-15T11:55:04;96598.81;;;14.62;54.57
4012;BME280;2020;48.682;9.024;2024-02-15T11:57:30;96595.25;;;14.93;55.41
4012;BME280;2020;48.682;9.024;2024-02-15T12:00:03;96599.03;;;15.20;56.74
4012;BME280;2020;48.682;9.024;2024-02-15T12:03:00;96593.28;;;15.25;53.00
4012;BME280;2020;48.682;9.024;2024-02-15T12:05:44;96583.16;;;15.22;54.15
4012;BME280;2020;48.682;9.024;2024-02-15T12:08:28;96582.16;;;15.08;52.36
4012;BME280;2020;48.682;9.024;2024-02-15T12:11:14;96582.06;;;15.16;53.99
4012;BME280;2020;48.682;9.024;2024-02-15T12:13:57;96568.22;;;14.93;52.77
4012;BME280;2020;48.682;9.024;2024-02-15T12:16:41;96574.19;;;15.16;53.64
4012;BME280;2020;48.682;9.024;2024-02-15T12:19:25;96568.28;;;14.69;52.44
4012;BME280;2020;48.682;9.024;2024-02-15T12:21:51;96568.94;;;14.86;52.33
4012;BME280;2020;48.682;9.024;2024-02-15T12:24:17;96557.56;;;15.09;53.78
4012;BME280;2020;48.682;9.024;2024-02-15T12:26:46;96561.38;;;14.91;51.66
4012;BME280;2020;48.682;9.024;2024-02-15T12:29:17;96547.16;;;14.71;52.50
4012;BME280;2020;48.682;9.024;2024-02-15T12:31:43;96543.84;;;14.77;51.90
4012;BME280;2020;48.682;9.024;2024-02-15T12:34:09;96538.06;;;14.97;52.83
4012;BME280;2020;48.682;9.024;2024-02-15T12:36:36;96542.09;;;15.29;52.88
4012;BME280;2020;48.682;9.024;2024-02-15T12:39:03;96539.47;;;15.44;51.79
4012;BME280;2020;48.682;9.024;2024-02-15T12:41:38;96534.78;;;15.25;51.73
4012;BME280;2020;48.682;9.024;2024-02-15T12:44:06;96533.31;;;15.37;52.91
4012;BME280;2020;48.682;9.024;2024-02-15T12:46:33;96529.97;;;15.43;52.18
4012;BME280;2020;48.682;9.024;2024-02-15T12:49:27;96526.38;;;15.66;52.41
4012;BME280;2020;48.682;9.024;2024-02-15T12:51:54;96521.50;;;15.63;53.68
4012;BME280;2020;48.682;9.024;2024-02-15T12:54:38;96522.13;;;15.87;52.67
4012;BME280;2020;48.682;9.024;2024-02-15T12:57:08;96514.53;;;15.92;52.33
4012;BME280;2020;48.682;9.024;2024-02-15T12:59:39;96509.38;;;15.84;52.43
4012;BME280;2020;48.682;9.024;2024-02-15T13:02:04;96509.06;;;15.72;52.18
4012;BME280;2020;48.682;9.024;2024-02-15T13:04:29;96507.38;;;15.64;54.25
4012;BME280;2020;48.682;9.024;2024-02-15T13:06:55;96501.38;;;15.48;52.62
4012;BME280;2020;48.682;9.024;2024-02-15T13:09:20;96500.00;;;15.53;53.05
4012;BME280;2020;48.682;9.024;2024-02-15T13:11:47;96501.75;;;15.67;53.93
4012;BME280;2020;48.682;9.024;2024-02-15T13:14:15;96494.25;;;15.64;52.77
4012;BME280;2020;48.682;9.024;2024-02-15T13:16:40;96486.16;;;15.59;54.30
4012;BME280;2020;48.682;9.024;2024-02-15T13:19:08;96482.63;;;15.52;53.33
4012;BME280;2020;48.682;9.024;2024-02-15T13:21:33;96481.91;;;15.58;54.19
4012;BME280;2020;48.682;9.024;2024-02-15T13:23:59;96476.28;;;15.61;54.75
4012;BME280;2020;48.682;9.024;2024-02-15T13:26:25;96482.03;;;15.71;53.18
4012;BME280;2020;48.682;9.024;2024-02-15T13:28:51;96480.78;;;15.67;52.30
4012;BME280;2020;48.682;9.024;2024-02-15T13:31:17;96481.38;;;15.47;53.41
4012;BME280;2020;48.682;9.024;2024-02-15T13:33:42;96479.78;;;15.46;52.92